地図

経路データ

SID SEASON NUMBER BASIN SUBBASIN NAME ISO_TIME NATURE LAT LON WMO_WIND WMO_PRES WMO_AGENCY TRACK_TYPE DIST2LAND LANDFALL IFLAG USA_AGENCY USA_ATCF_ID USA_LAT USA_LON USA_RECORD USA_STATUS USA_WIND USA_PRES USA_SSHS USA_R34_NE USA_R34_SE USA_R34_SW USA_R34_NW USA_R50_NE USA_R50_SE USA_R50_SW USA_R50_NW USA_R64_NE USA_R64_SE USA_R64_SW USA_R64_NW USA_POCI USA_ROCI USA_RMW USA_EYE TOKYO_LAT TOKYO_LON TOKYO_GRADE TOKYO_WIND TOKYO_PRES TOKYO_R50_DIR TOKYO_R50_LONG TOKYO_R50_SHORT TOKYO_R30_DIR TOKYO_R30_LONG TOKYO_R30_SHORT TOKYO_LAND CMA_LAT CMA_LON CMA_CAT CMA_WIND CMA_PRES HKO_LAT HKO_LON HKO_CAT HKO_WIND HKO_PRES NEWDELHI_LAT NEWDELHI_LON NEWDELHI_GRADE NEWDELHI_WIND NEWDELHI_PRES NEWDELHI_CI NEWDELHI_DP NEWDELHI_POCI REUNION_LAT REUNION_LON REUNION_TYPE REUNION_WIND REUNION_PRES REUNION_TNUM REUNION_CI REUNION_RMW REUNION_R34_NE REUNION_R34_SE REUNION_R34_SW REUNION_R34_NW REUNION_R50_NE REUNION_R50_SE REUNION_R50_SW REUNION_R50_NW REUNION_R64_NE REUNION_R64_SE REUNION_R64_SW REUNION_R64_NW BOM_LAT BOM_LON BOM_TYPE BOM_WIND BOM_PRES BOM_TNUM BOM_CI BOM_RMW BOM_R34_NE BOM_R34_SE BOM_R34_SW BOM_R34_NW BOM_R50_NE BOM_R50_SE BOM_R50_SW BOM_R50_NW BOM_R64_NE BOM_R64_SE BOM_R64_SW BOM_R64_NW BOM_ROCI BOM_POCI BOM_EYE BOM_POS_METHOD BOM_PRES_METHOD NADI_LAT NADI_LON NADI_CAT NADI_WIND NADI_PRES WELLINGTON_LAT WELLINGTON_LON WELLINGTON_WIND WELLINGTON_PRES DS824_LAT DS824_LON DS824_STAGE DS824_WIND DS824_PRES TD9636_LAT TD9636_LON TD9636_STAGE TD9636_WIND TD9636_PRES TD9635_LAT TD9635_LON TD9635_WIND TD9635_PRES TD9635_ROCI NEUMANN_LAT NEUMANN_LON NEUMANN_CLASS NEUMANN_WIND NEUMANN_PRES MLC_LAT MLC_LON MLC_CLASS MLC_WIND MLC_PRES USA_GUST BOM_GUST BOM_GUST_PER REUNION_GUST REUNION_GUST_PER USA_SEAHGT USA_SEARAD_NE USA_SEARAD_SE USA_SEARAD_SW USA_SEARAD_NW STORM_SPEED STORM_DIR
1955054S10056 1955 14 SI MM NOT_NAMED 1955-02-23 06:00:00 TS -9.70000 56.0000 main 761 746 O________OO___ jtwc_sh SH171955 -9.70000 56.0000 -1 -9.70000 56.0000 TC 25 -9.70000 56.0000 7 4 214
1955054S10056 1955 14 SI MM NOT_NAMED 1955-02-23 09:00:00 TS -9.84740 55.9000 main 746 725 P________PP___ SH171955 -9.84999 55.9125 -1 -9.84999 55.9125 TC 25 -9.84222 55.8751 7 4 216
1955054S10056 1955 14 SI MM NOT_NAMED 1955-02-23 12:00:00 TS -9.99585 55.7834 main 725 701 O________OP___ jtwc_sh SH171955 -10.0000 55.8000 -1 -10.0000 55.8000 TC 25 -9.98754 55.7501 7 4 220
1955054S10056 1955 14 SI MM NOT_NAMED 1955-02-23 15:00:00 TS -10.1464 55.6417 main 701 681 P________PP___ SH171955 -10.1500 55.6500 -1 -10.1500 55.6500 TC 25 -10.1391 55.6250 7 4 223
1955054S10056 1955 14 SI MM NOT_NAMED 1955-02-23 18:00:00 TS -10.3000 55.5000 main 681 666 O________OO___ jtwc_sh SH171955 -10.3000 55.5000 -1 -10.3000 55.5000 TC 25 -10.3000 55.5000 1 4 219
1955054S10056 1955 14 SI MM NOT_NAMED 1955-02-23 21:00:00 TS -10.4523 55.3916 main 661 646 P________PP___ SH171955 -10.4425 55.4000 -1 -10.4425 55.4000 TC 25 -10.4719 55.3750 1 4 214
1955054S10056 1955 14 SI MM NOT_NAMED 1955-02-24 00:00:00 TS -10.6167 55.2833 main 646 617 O________OP___ jtwc_sh SH171955 -10.6000 55.3000 -1 -10.6000 55.3000 TC 25 -10.6500 55.2500 1 4 215
1955054S10056 1955 14 SI MM NOT_NAMED 1955-02-24 03:00:00 TS -10.8094 55.1417 main 617 598 P________PP___ SH171955 -10.8000 55.1500 -1 -10.8000 55.1500 TC 25 -10.8281 55.1250 1 5 216
1955054S10056 1955 14 SI MM NOT_NAMED 1955-02-24 06:00:00 TS -11.0000 55.0000 main 598 584 O________OO___ jtwc_sh SH171955 -11.0000 55.0000 -1 -11.0000 55.0000 TC 25 -11.0000 55.0000 1 4 216
1955054S10056 1955 14 SI MM NOT_NAMED 1955-02-24 09:00:00 TS -11.1560 54.8903 main 580 565 P________PP___ SH171955 -11.1575 54.9000 -1 -11.1575 54.9000 TC 25 -11.1531 54.8709 1 4 216
1955054S10056 1955 14 SI MM NOT_NAMED 1955-02-24 12:00:00 TS -11.3000 54.7808 main 565 541 O________OP___ jtwc_sh SH171955 -11.3000 54.8000 -1 -11.3000 54.8000 TC 25 -11.3000 54.7424 1 4 220
1955054S10056 1955 14 SI MM NOT_NAMED 1955-02-24 15:00:00 TS -11.4490 54.6393 main 541 524 P________PP___ SH171955 -11.4500 54.6500 -1 -11.4500 54.6500 TC 25 -11.4469 54.6178 1 4 222
1955054S10056 1955 14 SI MM NOT_NAMED 1955-02-24 18:00:00 TS -11.6000 54.5000 main 524 510 O________OO___ jtwc_sh SH171955 -11.6000 54.5000 -1 -11.6000 54.5000 TC 25 -11.6000 54.5000 1 4 221
1955054S10056 1955 14 SI MM NOT_NAMED 1955-02-24 21:00:00 TS -11.7374 54.3885 main 510 493 P________PP___ SH171955 -11.7425 54.3925 -1 -11.7425 54.3925 TC 25 -11.7272 54.3806 1 4 215
1955054S10056 1955 14 SI MM NOT_NAMED 1955-02-25 00:00:00 TS -11.8892 54.2900 main 493 480 O________OP___ jtwc_sh SH171955 -11.9000 54.3000 -1 -11.9000 54.3000 TC 25 -11.8675 54.2699 1 4 212
1955054S10056 1955 14 SI MM NOT_NAMED 1955-02-25 03:00:00 TS -12.0580 54.1864 main 477 469 P________PP___ SH171955 -12.0625 54.1925 -1 -12.0625 54.1925 TC 25 -12.0491 54.1743 1 6 192
1955054S10056 1955 14 SI MM NOT_NAMED 1955-02-25 06:00:00 TS -12.4231 54.1692 reunion main 469 457 O____O___OO___ jtwc_sh SH171955 -12.3000 54.1000 -1 -13.9000 55.0000 99 9.90000 -12.3000 54.1000 TC 25 -12.3000 54.1000 1 8 0
1955054S10056 1955 14 SI MM NOT_NAMED 1955-02-25 09:00:00 TS -12.8504 54.1619 main 455 446 P____P___PP___ SH171955 -12.6625 54.0350 -1 -13.9313 54.9346 99 -12.6625 54.0350 TC 25 -12.6856 54.0292 1 9 179
1955054S10056 1955 14 SI MM NOT_NAMED 1955-02-25 12:00:00 TS -13.2834 54.1700 main 446 432 O____P___OP___ jtwc_sh SH171955 -13.1000 54.0000 -1 -13.9703 54.8730 99 -13.1000 54.0000 TC 25 -13.1350 53.9828 1 9 179
1955054S10056 1955 14 SI MM NOT_NAMED 1955-02-25 15:00:00 TS -13.6942 54.1860 main 432 420 P____P___PP___ SH171955 -13.5800 53.9775 -1 -14.0248 54.8191 99 -13.5800 53.9775 TC 25 -13.5918 53.9699 1 7 179
1955054S10056 1955 14 SI MM NOT_NAMED 1955-02-25 18:00:00 TS -14.0256 54.1942 main 420 413 O____P___OO___ jtwc_sh SH171955 -14.0000 54.0000 -1 -14.1025 54.7767 99 -14.0000 54.0000 TC 25 -14.0000 54.0000 1 5 174
1955054S10056 1955 14 SI MM NOT_NAMED 1955-02-25 21:00:00 TS -14.2363 54.2426 main 413 413 P____P___PP___ SH171955 -14.2300 54.0775 -1 -14.2111 54.7497 99 -14.2300 54.0775 TC 25 -14.2743 54.0657 1 4 161
1955054S10056 1955 14 SI MM NOT_NAMED 1955-02-26 00:00:00 TS -14.4133 54.3293 main 418 416 O____P___OP___ jtwc_sh SH171955 -14.4000 54.2000 -1 -14.3584 54.7420 99 -14.4000 54.2000 TC 25 -14.4949 54.1751 1 4 155
1955054S10056 1955 14 SI MM NOT_NAMED 1955-02-26 03:00:00 TS -14.6325 54.4337 main 424 422 P____P___PP___ SH171955 -14.6425 54.3276 -1 -14.5521 54.7575 99 -14.6425 54.3276 TC 25 -14.6930 54.3220 1 5 153
1955054S10056 1955 14 SI MM NOT_NAMED 1955-02-26 06:00:00 TS -14.8750 54.5750 reunion main 441 440 O____O___OO___ jtwc_sh SH171955 -14.9000 54.5000 -1 -14.8000 54.8000 99 9.90000 -14.9000 54.5000 TC 25 -14.9000 54.5000 1 6 148
1955054S10056 1955 14 SI MM NOT_NAMED 1955-02-26 09:00:00 TS -15.1411 54.7643 main 461 461 P____P___PP___ SH171955 -15.1425 54.7425 -1 -15.1064 54.8719 99 -15.1425 54.7425 TC 25 -15.1729 54.7001 1 7 145
1955054S10056 1955 14 SI MM NOT_NAMED 1955-02-26 12:00:00 TS -15.4299 54.9739 main 482 482 O____P___OP___ jtwc_sh SH171955 -15.4000 55.0000 -1 -15.4618 54.9685 99 -15.4000 55.0000 TC 25 -15.4576 54.9272 1 7 148
1955054S10056 1955 14 SI MM NOT_NAMED 1955-02-26 15:00:00 TS -15.7517 55.1660 main 505 504 P____P___PP___ SH171955 -15.7075 55.2075 -1 -15.8534 55.0833 99 -15.7075 55.2075 TC 30 -15.7385 55.1658 1 7 150
1955054S10056 1955 14 SI MM NOT_NAMED 1955-02-26 18:00:00 TS -16.0670 55.3524 main 499 474 O____P___OO___ jtwc_sh SH171955 -16.0000 55.4000 -1 -16.2681 55.2098 99 -16.0000 55.4000 TC 35 -16.0000 55.4000 2 7 148
1955054S10056 1955 14 SI MM NOT_NAMED 1955-02-26 21:00:00 TS -16.3219 55.5364 main 474 445 P____P___PP___ SH171955 -16.2150 55.6001 -1 -16.6930 55.3414 99 -16.2150 55.6001 TC 35 -16.1646 55.6039 2 6 144
1955054S10056 1955 14 SI MM NOT_NAMED 1955-02-27 00:00:00 TS -16.5581 55.7182 main 435 405 O____P___OP___ jtwc_sh SH171955 -16.4000 55.8000 -1 -17.1152 55.4715 99 -16.4000 55.8000 TC 35 -16.3174 55.8012 2 6 143
1955054S10056 1955 14 SI MM NOT_NAMED 1955-02-27 03:00:00 TS -16.7821 55.8942 main 405 366 P____P___PP___ SH171955 -16.5475 55.9928 -1 -17.5218 55.5933 99 -16.5475 55.9928 TC 35 -16.5115 55.9978 2 6 146
1955054S10056 1955 14 SI MM NOT_NAMED 1955-02-27 06:00:00 TS -17.0750 56.0750 reunion main 366 317 O____O___OO___ jtwc_sh SH171955 -16.8000 56.2000 -1 -17.9000 55.7000 99 9.90000 -16.8000 56.2000 TC 35 -16.8000 56.2000 2 9 152
1955054S10056 1955 14 SI MM NOT_NAMED 1955-02-27 09:00:00 TS -17.5366 56.3124 main 317 257 P____P___PP___ SH171955 -17.2975 56.4498 -1 -18.2408 55.8247 99 -17.2975 56.4498 TC 35 -17.3104 56.5252 2 11 156
1955054S10056 1955 14 SI MM NOT_NAMED 1955-02-27 12:00:00 TS -18.0677 56.5464 main 247 183 O____P___OP___ jtwc_sh SH171955 -17.9000 56.7000 -1 -18.5632 55.9439 99 -17.9000 56.7000 TC 35 -17.9074 56.8417 2 11 157
1955054S10056 1955 14 SI MM NOT_NAMED 1955-02-27 15:00:00 TS -18.5848 56.7725 main 183 138 P____P___PP___ SH171955 -18.4874 56.9895 -1 -18.8636 56.0481 99 -18.4874 56.9895 TC 35 -18.5006 57.0628 2 10 163
1955054S10056 1955 14 SI MM NOT_NAMED 1955-02-27 18:00:00 TS -19.0345 56.8568 main 138 114 O____P___OO___ jtwc_sh SH171955 -19.0000 57.1000 -1 -19.1379 56.1274 99 -19.0000 57.1000 TC 35 -19.0000 57.1000 2 8 186
1955054S10056 1955 14 SI MM NOT_NAMED 1955-02-27 21:00:00 TS -19.3663 56.6749 main 114 114 P____P___PP___ SH171955 -19.3749 56.8630 -1 -19.3826 56.1721 99 -19.3749 56.8630 TC 35 -19.3327 56.8015 2 8 222
1955054S10056 1955 14 SI MM NOT_NAMED 1955-02-28 00:00:00 TS -19.5870 56.3237 main 137 137 O____P___OP___ jtwc_sh SH171955 -19.6000 56.4000 -1 -19.5937 56.1723 99 -19.6000 56.4000 TC 35 -19.5544 56.3225 2 8 245
1955054S10056 1955 14 SI MM NOT_NAMED 1955-02-28 03:00:00 TS -19.7155 55.8850 main 146 134 P____P___PP___ SH171955 -19.7105 55.8199 -1 -19.7675 56.1182 99 -19.7105 55.8199 TC 35 -19.6736 55.7820 2 8 258
1955054S10056 1955 14 SI MM NOT_NAMED 1955-02-28 06:00:00 TS -19.7500 55.4750 reunion main 145 134 O____O___OO___ jtwc_sh SH171955 -19.7000 55.3000 -1 -19.9000 56.0000 99 9.90000 -19.7000 55.3000 TC 35 -19.7000 55.3000 2 6 269
1955054S10056 1955 14 SI MM NOT_NAMED 1955-02-28 09:00:00 TS -19.7241 55.2526 main 145 145 P____P___PP___ SH171955 -19.6297 55.0975 -1 -19.9849 55.7539 99 -19.6297 55.0975 TC 35 -19.6523 55.0615 2 4 287
1955054S10056 1955 14 SI MM NOT_NAMED 1955-02-28 12:00:00 TS -19.6373 55.0835 main 157 157 O____P___OP___ jtwc_sh SH171955 -19.5000 55.0000 -1 -20.0252 55.4371 99 -19.5000 55.0000 TC 35 -19.5240 54.8968 2 4 299
1955054S10056 1955 14 SI MM NOT_NAMED 1955-02-28 15:00:00 TS -19.5219 54.8722 main 172 172 P____P___PP___ SH171955 -19.3499 54.8300 -1 -20.0292 55.0702 99 -19.3499 54.8300 TC 50 -19.3587 54.7587 2 5 298
1955054S10056 1955 14 SI MM NOT_NAMED 1955-02-28 18:00:00 TS -19.4013 54.6184 main 193 193 O____P___OO___ jtwc_sh SH171955 -19.2000 54.6000 -1 -20.0051 54.6736 99 -19.2000 54.6000 TC 65 -19.2000 54.6000 4 6 291
1955054S10056 1955 14 SI MM NOT_NAMED 1955-02-28 21:00:00 TS -19.2975 54.2662 main 216 216 P____P___PP___ SH171955 -19.0852 54.2500 -1 -19.9614 54.2680 99 -19.0852 54.2500 TC 65 -19.0582 54.2966 4 7 286
1955054S10056 1955 14 SI MM NOT_NAMED 1955-03-01 00:00:00 TS -19.2112 53.9121 main 248 248 O____P___OP___ jtwc_sh SH171955 -19.0000 53.9000 -1 -19.9067 53.8737 99 -19.0000 53.9000 TC 65 -18.9381 53.9748 4 6 285
1955054S10056 1955 14 SI MM NOT_NAMED 1955-03-01 03:00:00 TS -19.1334 53.6204 main 276 276 P____P___PP___ SH171955 -18.9049 53.6400 -1 -19.8499 53.5110 99 -18.9049 53.6400 TC 65 -18.8738 53.6906 4 4 283
1955054S10056 1955 14 SI MM NOT_NAMED 1955-03-01 06:00:00 TS -19.1118 53.4588 reunion main 283 282 O____O___OO___ jtwc_sh SH171955 -18.9000 53.5000 -1 -19.8000 53.2000 99 9.90000 -18.9000 53.5000 TC 65 -18.9000 53.5000 4 2 247
1955054S10056 1955 14 SI MM NOT_NAMED 1955-03-01 09:00:00 TS -19.2108 53.4295 main 282 259 P____P___PP___ SH171955 -19.0475 53.5050 -1 -19.7642 52.9560 99 -19.0475 53.5050 TC 65 -19.0685 53.4703 4 3 0
1955054S10056 1955 14 SI MM NOT_NAMED 1955-03-01 12:00:00 TS -19.3806 53.4747 main 259 244 O____P___OP___ jtwc_sh SH171955 -19.3000 53.6000 -1 -19.7426 52.7746 99 -19.3000 53.6000 TC 65 -19.3248 53.5373 4 4 164
1955054S10056 1955 14 SI MM NOT_NAMED 1955-03-01 15:00:00 TS -19.5811 53.5378 main 244 221 P____P___PP___ SH171955 -19.6075 53.6924 -1 -19.7332 52.6470 99 -19.6075 53.6924 TC 65 -19.6187 53.6607 4 4 165
1955054S10056 1955 14 SI MM NOT_NAMED 1955-03-01 18:00:00 TS -19.7867 53.5958 main 221 213 O____P___OO___ jtwc_sh SH171955 -19.9000 53.8000 -1 -19.7341 52.5640 99 -19.9000 53.8000 TC 65 -19.9000 53.8000 4 4 164
1955054S10056 1955 14 SI MM NOT_NAMED 1955-03-01 21:00:00 TS -19.9269 53.6528 main 205 183 P____P___PP___ SH171955 -20.0650 53.9001 -1 -19.7433 52.5167 99 -20.0650 53.9001 TC 65 -20.0884 53.8970 4 3 148
1955054S10056 1955 14 SI MM NOT_NAMED 1955-03-02 00:00:00 TS -20.0713 53.7850 main 183 168 O____P___OP___ jtwc_sh SH171955 -20.2000 54.0000 -1 -19.7587 52.4963 99 -20.2000 54.0000 TC 65 -20.2575 54.0001 4 4 140
1955054S10056 1955 14 SI MM NOT_NAMED 1955-03-02 03:00:00 TS -20.2593 53.9452 main 162 132 P____P___PP___ SH171955 -20.3925 54.1075 -1 -19.7783 52.4937 99 -20.3925 54.1075 TC 65 -20.4228 54.1032 4 5 142
1955054S10056 1955 14 SI MM NOT_NAMED 1955-03-02 06:00:00 TS -20.4824 54.1235 reunion main 132 103 O____O___OO___ jtwc_sh SH171955 -20.6000 54.2000 -1 -19.8000 52.5000 99 9.90000 -20.6000 54.2000 TC 65 -20.6000 54.2000 4 6 145
1955054S10056 1955 14 SI MM NOT_NAMED 1955-03-02 09:00:00 TS -20.7363 54.3065 main 103 83 P________PP___ SH171955 -20.7925 54.2501 -1 99 -20.7925 54.2501 TC 65 -20.8065 54.2823 4 5 152
1955054S10056 1955 14 SI MM NOT_NAMED 1955-03-02 12:00:00 TS -20.9633 54.3927 main 83 72 O________OP___ jtwc_sh SH171955 -21.0000 54.3000 -1 99 -21.0000 54.3000 TC 65 -21.0275 54.3576 4 5 159
1955054S10056 1955 14 SI MM NOT_NAMED 1955-03-02 15:00:00 TS -21.2175 54.5073 main 73 66 P________PP___ SH171955 -21.2500 54.3999 -1 99 -21.2500 54.3999 TC 65 -21.2597 54.4292 4 6 157
1955054S10056 1955 14 SI MM NOT_NAMED 1955-03-02 18:00:00 TS -21.4753 54.6241 main 75 66 O________OO___ jtwc_sh SH171955 -21.5000 54.5000 -1 99 -21.5000 54.5000 TC 65 -21.5000 54.5000 4 5 158
1955054S10056 1955 14 SI MM NOT_NAMED 1955-03-02 21:00:00 TS -21.6876 54.7103 main 76 76 P________PP___ SH171955 -21.6925 54.5501 -1 99 -21.6925 54.5501 TC 65 -21.6737 54.5476 4 5 160
1955054S10056 1955 14 SI MM NOT_NAMED 1955-03-03 00:00:00 TS -21.9102 54.7953 main 84 84 O________OP___ jtwc_sh SH171955 -21.9000 54.6000 -1 99 -21.9000 54.6000 TC 65 -21.8648 54.5993 4 5 160
1955054S10056 1955 14 SI MM NOT_NAMED 1955-03-03 03:00:00 TS -22.1627 54.8964 main 108 108 P________PP___ SH171955 -22.1400 54.6777 -1 99 -22.1400 54.6777 TC 65 -22.1236 54.6763 4 6 160
1955054S10056 1955 14 SI MM NOT_NAMED 1955-03-03 06:00:00 TS -22.5000 55.0250 reunion main 137 137 O________OO___ jtwc_sh SH171955 -22.5000 54.8000 -1 -22.5000 54.8000 TC 65 -22.5000 54.8000 4 9 161
1955054S10056 1955 14 SI MM NOT_NAMED 1955-03-03 09:00:00 TS -22.9649 55.1902 main 183 183 P________PP___ SH171955 -23.0325 54.9702 -1 -23.0325 54.9702 TC 65 -23.0653 55.0065 4 11 162
1955054S10056 1955 14 SI MM NOT_NAMED 1955-03-03 12:00:00 TS -23.5206 55.3895 main 235 235 O________OP___ jtwc_sh SH171955 -23.7000 55.2000 -1 -23.7000 55.2000 TC 65 -23.7455 55.2606 4 12 161
1955054S10056 1955 14 SI MM NOT_NAMED 1955-03-03 15:00:00 TS -24.1259 55.6221 main 301 301 P________PP___ SH171955 -24.4501 55.4996 -1 -24.4501 55.4996 TC 65 -24.4779 55.5347 4 13 161
1955054S10056 1955 14 SI MM NOT_NAMED 1955-03-03 18:00:00 TS -24.7248 55.8475 main 369 369 O________OO___ jtwc_sh SH171955 -25.2000 55.8000 -1 -25.2000 55.8000 TC 65 -25.2000 55.8000 4 12 162
1955054S10056 1955 14 SI MM NOT_NAMED 1955-03-03 21:00:00 TS -25.2420 56.0181 main 426 426 P________PP___ SH171955 -25.8224 56.0156 -1 -25.8224 56.0156 TC 50 -25.8631 56.0334 4 10 164
1955054S10056 1955 14 SI MM NOT_NAMED 1955-03-04 00:00:00 TS -25.7210 56.1626 main 484 484 O________OP___ jtwc_sh SH171955 -26.4000 56.2000 -1 -26.4000 56.2000 TC 35 -26.4721 56.2378 4 10 165
1955054S10056 1955 14 SI MM NOT_NAMED 1955-03-04 03:00:00 TS -26.1969 56.3051 main 541 541 P________PP___ SH171955 -26.9926 56.3944 -1 -26.9926 56.3944 TC 30 -27.0451 56.4233 4 10 165
1955054S10056 1955 14 SI MM NOT_NAMED 1955-03-04 06:00:00 TS -26.6750 56.4500 reunion main 599 O________OO___ jtwc_sh SH171955 -27.6000 56.6000 -1 -27.6000 56.6000 TC 25 -27.6000 56.6000 7 10 165

IBTrACS Databaseについて

本データベースは、米国NOAAが公開する1842年以降の世界の熱帯低気圧のベストトラックデータアーカイブInternational Best Track Archive for Climate Stewardship (IBTrACS)を、ウェブで閲覧しやすい形式に変換したものです。

最終更新日:2021-10-25